Date,TemperatureHighF,TemperatureAvgF,TemperatureLowF,DewpointHighF,DewpointAvgF,DewpointLowF,HumidityHigh,HumidityAvg,HumidityLow,PressureMaxIn,PressureMinIn,WindSpeedMaxMPH,WindSpeedAvgMPH,GustSpeedMaxMPH,PrecipitationSumIn
2013-1-1,33,26,16,19,15,8,92,63,43,0.00,40.00,7,3,12,0.00
2013-1-2,35,29,19,14,11,6,54,46,35,0.00,40.00,12,-11,16,0.00
2013-1-3,40,32,12,11,9,2,65,39,28,0.00,40.00,10,4,12,0.00
2013-1-4,50,40,21,24,19,10,64,43,33,0.00,40.00,4,2,6,0.00
2013-1-5,42,36,21,20,17,11,65,47,38,0.00,40.00,14,5,20,0.00
2013-1-6,48,37,17,18,15,8,66,41,29,0.00,40.00,4,2,6,0.00
2013-1-7,55,47,31,23,20,14,49,34,27,0.00,40.00,9,3,11,0.00
2013-1-8,51,48,45,27,25,23,41,39,37,0.00,40.00,18,-24,32,0.00
2013-1-9,58,47,28,31,27,22,76,47,34,0.00,40.00,4,-13,7,0.00
2013-1-10,42,36,25,29,26,19,78,65,59,0.00,40.00,4,-15,6,0.00
2013-1-11,42,31,20,27,21,12,94,69,36,0.00,40.00,15,-8,31,0.00
2013-1-12,17,12,6,12,8,6,99,86,75,0.00,40.00,7,4,13,0.00
2013-1-13,16,11,4,10,8,4,97,85,75,0.00,40.00,7,3,11,0.00
2013-1-14,17,12,4,9,5,1,87,72,59,0.00,40.00,6,2,9,0.00
2013-1-15,33,24,7,17,12,4,87,61,47,0.00,40.00,6,2,8,0.00
2013-1-16,55,48,26,29,25,18,73,42,33,0.00,40.00,11,6,16,0.00
2013-1-17,54,44,24,27,24,20,83,46,32,0.00,40.00,9,3,13,0.00
2013-1-18,60,49,28,25,19,14,57,32,22,0.00,40.00,9,-14,14,0.00
2013-1-19,62,53,36,24,19,10,33,25,21,0.00,40.00,14,-11,29,0.00
2013-1-20,51,42,28,25,20,14,55,42,35,0.00,40.00,12,4,19,0.00
2013-1-21,58,43,20,28,23,14,94,49,27,0.00,40.00,12,-12,19,0.00
2013-1-22,66,54,39,23,17,5,30,23,17,0.00,40.00,17,5,30,0.00
2013-1-23,66,57,46,23,18,13,26,21,19,0.00,40.00,14,3,22,0.00
2013-1-24,41,38,31,25,22,18,56,51,48,0.00,40.00,5,2,13,0.00
2013-1-25,53,49,44,36,34,32,64,55,51,0.00,40.00,6,2,7,0.00
2013-1-26,53,46,31,36,34,28,88,62,52,0.00,40.00,5,2,6,0.00
2013-1-27,59,50,35,38,35,31,99,58,38,0.00,40.00,10,4,16,0.00
2013-1-28,51,40,30,33,28,19,99,63,42,0.00,40.00,14,4,21,0.00
2013-1-29,37,30,21,19,11,9,89,47,34,0.00,40.00,7,4,12,0.00
2013-1-30,43,34,14,18,13,9,80,42,33,0.00,40.00,19,11,35,0.00
2013-1-31,48,40,25,26,20,15,82,48,31,0.00,40.00,11,5,24,0.00
2013-2-1,49,44,28,25,21,18,79,41,31,0.00,40.00,17,8,28,0.00
2013-2-2,58,47,23,28,22,18,87,41,22,0.00,40.00,12,-9,22,0.00
2013-2-3,52,43,27,26,22,16,65,45,26,0.00,40.00,9,-11,17,0.00
2013-2-4,56,47,30,25,19,12,49,33,26,0.00,40.00,19,6,34,0.00
2013-2-5,62,50,32,33,26,15,51,39,32,0.00,40.00,12,4,20,0.00
2013-2-6,55,50,37,32,29,25,62,43,37,0.00,40.00,14,6,25,0.00
2013-2-7,49,42,26,29,22,19,99,48,31,0.00,40.00,11,5,16,0.00
2013-2-8,53,41,24,21,17,13,64,39,23,0.00,40.00,6,3,10,0.00
2013-2-9,40,33,24,30,25,16,92,71,53,0.00,40.00,8,3,13,0.00
2013-2-10,37,32,27,22,17,12,82,53,39,0.00,40.00,11,5,19,0.00
2013-2-11,27,25,19,20,18,14,85,74,69,0.00,40.00,8,3,12,0.00
2013-2-12,45,36,15,16,9,5,75,35,21,0.00,40.00,9,4,13,0.00
2013-2-13,48,40,26,22,18,10,54,42,34,0.00,40.00,17,-5,36,0.00
2013-2-14,33,28,24,27,24,20,99,85,64,0.00,40.00,9,-11,18,0.00
2013-2-15,42,34,17,24,18,13,96,54,32,0.00,40.00,14,4,21,0.00
2013-2-16,55,50,42,24,21,18,37,31,28,0.00,40.00,17,9,34,0.00
2013-2-17,61,55,48,17,15,12,26,20,17,0.00,40.00,17,-4,34,0.00
2013-2-18,41,36,24,24,15,9,84,43,30,0.00,40.00,16,7,26,0.00
2013-2-19,41,33,21,22,18,12,68,54,41,0.00,40.00,7,3,11,0.00
2013-2-20,38,30,20,30,23,17,99,75,55,0.00,40.00,10,4,14,0.00
2013-2-21,32,25,15,22,18,14,97,76,59,0.00,40.00,6,2,10,0.00
2013-2-22,35,30,18,21,18,16,94,63,52,0.00,40.00,11,5,16,0.00
2013-2-23,42,33,18,24,19,11,78,58,43,0.00,40.00,7,3,12,0.00
2013-2-24,29,27,26,29,26,25,99,96,92,0.00,40.00,12,6,22,0.10
2013-2-25,40,31,11,21,17,10,95,58,42,0.00,40.00,10,4,17,0.00
2013-2-26,38,31,25,28,24,19,93,75,57,0.00,40.00,11,4,17,0.00
2013-2-27,39,33,16,16,12,10,74,43,32,0.00,40.00,9,4,13,0.00
2013-2-28,43,38,20,19,14,9,62,38,30,0.00,40.00,16,6,25,0.00
2013-3-1,46,40,24,25,23,16,70,51,42,0.00,40.00,7,-9,10,0.00
2013-3-2,62,54,30,33,29,25,79,39,31,0.00,40.00,15,4,24,0.00
2013-3-3,62,56,40,31,28,23,49,35,29,0.00,40.00,20,8,32,0.00
2013-3-4,34,30,26,29,26,23,97,85,71,0.00,40.00,11,-9,18,0.00
2013-3-5,41,32,13,22,18,12,94,59,44,0.00,40.00,7,3,9,0.00
2013-3-6,60,45,22,33,28,20,94,53,30,0.00,40.00,7,3,11,0.00
2013-3-7,65,53,31,35,31,27,81,46,27,0.00,40.00,8,4,13,0.00
2013-3-8,48,41,31,35,32,28,90,72,58,0.00,40.00,7,3,11,0.00
2013-3-9,33,32,31,33,32,30,99,98,93,0.00,40.00,11,3,19,0.00
2013-3-10,47,38,18,22,17,12,85,44,30,0.00,40.00,9,4,12,0.00
2013-3-11,54,47,35,31,23,17,82,39,29,0.00,40.00,17,8,33,0.00
2013-3-12,37,31,25,26,24,22,98,76,61,0.00,40.00,7,3,10,0.00
2013-3-13,66,51,28,35,28,22,94,46,23,0.00,40.00,8,-9,12,0.00
2013-3-14,74,63,42,33,28,22,48,28,17,0.00,40.00,14,4,18,0.00
2013-3-15,77,68,53,33,29,24,32,23,19,0.00,40.00,12,5,19,0.00
2013-3-16,56,47,41,37,34,31,72,60,49,0.00,40.00,14,5,18,0.00
2013-3-17,58,49,34,33,27,22,74,43,29,0.00,40.00,23,11,40,0.00
2013-3-18,49,43,34,22,19,12,42,38,33,0.00,40.00,19,10,35,0.00
2013-3-19,54,48,40,18,11,4,30,22,16,0.00,40.00,17,9,35,0.00
2013-3-20,51,41,22,29,24,18,83,54,40,0.00,40.00,6,3,12,0.00
2013-3-21,59,50,44,37,29,18,60,44,31,0.00,40.00,16,-5,29,0.00
2013-3-22,45,36,27,32,24,16,99,66,47,0.00,40.00,14,7,24,0.00
2013-3-23,26,21,18,21,16,13,97,83,68,0.00,40.00,13,-8,22,0.00
2013-3-24,35,25,8,14,11,5,90,56,38,0.00,40.00,8,-10,10,0.00
2013-3-25,34,28,16,16,13,11,85,54,42,0.00,40.00,11,6,16,0.00
2013-3-26,50,40,21,29,23,14,76,52,36,0.00,40.00,7,3,12,0.00
2013-3-27,54,47,32,38,33,27,82,58,49,0.00,40.00,7,4,13,0.00
2013-3-28,65,54,33,34,32,29,95,45,29,0.00,40.00,10,-8,14,0.00
2013-3-29,66,57,42,37,32,30,65,41,29,0.00,40.00,16,-9,25,0.00
2013-3-30,66,56,39,39,33,30,73,45,27,0.00,40.00,20,-5,32,0.00
2013-3-31,70,59,34,36,32,26,89,39,22,0.00,40.00,11,-8,17,0.00
2013-4-1,52,43,32,36,33,29,91,69,54,0.00,40.00,11,-7,16,0.00
2013-4-2,40,37,34,37,35,34,99,93,83,0.00,40.00,7,3,9,0.00
2013-4-3,62,52,37,38,34,29,99,56,31,0.00,40.00,8,3,14,0.00
2013-4-4,70,60,39,37,33,29,76,39,24,0.00,40.00,11,-8,16,0.00
2013-4-5,73,66,51,33,31,28,43,27,22,0.00,40.00,14,6,29,0.00
2013-4-6,65,58,42,33,30,24,47,34,27,0.00,40.00,14,6,24,0.00
2013-4-7,64,56,42,36,32,28,76,41,26,0.00,40.00,22,-15,42,0.00
2013-4-8,63,52,40,39,36,30,69,54,37,0.00,40.00,22,6,34,0.00
2013-4-9,22,19,16,19,16,12,97,89,81,0.00,40.00,9,5,16,0.10
2013-4-10,36,24,6,17,12,4,91,61,42,0.00,40.00,9,3,12,0.00
2013-4-11,55,45,20,34,29,18,94,55,36,0.00,40.00,14,-6,23,0.00
2013-4-12,59,47,36,34,32,29,88,56,34,0.00,40.00,17,5,27,0.00
2013-4-13,67,54,32,36,30,25,97,46,22,0.00,40.00,16,5,31,0.00
2013-4-14,48,42,37,24,18,14,56,37,26,0.00,40.00,18,-1,35,0.00
2013-4-15,35,28,23,31,27,23,99,96,85,0.00,40.00,8,4,11,0.10
2013-4-16,34,30,24,30,26,23,98,85,72,0.00,40.00,7,-9,11,0.00
2013-4-17,32,26,23,31,25,19,99,95,84,0.00,40.00,10,5,16,0.00
2013-4-18,37,30,13,17,14,10,87,51,41,0.00,40.00,9,4,13,0.00
2013-4-19,57,47,26,24,21,17,68,36,27,0.00,40.00,13,-6,20,0.00
2013-4-20,57,49,34,34,32,29,83,52,38,0.00,40.00,7,-8,12,0.00
2013-4-21,61,54,35,34,28,25,78,39,25,0.00,40.00,13,5,26,0.00
2013-4-22,51,33,24,40,31,24,99,90,63,0.00,40.00,20,6,29,0.00
2013-4-23,40,29,20,22,18,14,99,65,37,0.00,40.00,6,-8,11,0.00
2013-4-24,57,46,23,26,22,19,89,41,25,0.00,40.00,9,4,14,0.00
2013-4-25,67,52,31,31,27,17,59,38,23,0.00,40.00,10,4,15,0.00
2013-4-26,67,55,42,30,27,24,49,34,24,0.00,40.00,9,4,16,0.00
2013-4-27,74,60,42,32,28,23,47,30,19,0.00,40.00,14,4,20,0.00
2013-4-28,77,66,49,37,32,24,39,29,22,0.00,40.00,16,5,27,0.00
2013-4-29,78,67,51,44,36,32,54,33,22,0.00,40.00,14,6,27,0.00
2013-4-30,69,52,35,42,36,28,98,58,26,0.00,40.00,16,5,30,0.10
2013-5-1,36,30,24,36,29,23,99,96,89,0.00,40.00,12,5,21,0.20
2013-5-2,48,34,20,26,20,15,93,59,31,0.00,40.00,6,3,11,0.00
2013-5-3,60,46,29,32,28,25,87,53,31,0.00,40.00,8,3,12,0.00
2013-5-4,58,49,38,36,31,26,68,51,38,0.00,40.00,9,4,14,0.00
2013-5-5,56,47,37,40,30,25,70,53,39,0.00,40.00,12,4,20,0.00
2013-5-6,65,54,40,39,36,33,78,53,36,0.00,40.00,9,3,18,0.00
2013-5-7,72,56,48,48,41,36,86,58,33,0.00,40.00,15,4,24,0.00
2013-5-8,59,50,46,48,43,38,98,76,56,0.00,40.00,21,5,31,0.10
2013-5-9,61,51,46,44,41,37,91,69,45,0.00,40.00,12,4,24,0.00
2013-5-10,67,55,42,43,36,-100,83,53,33,0.00,40.00,10,4,22,0.00
2013-5-11,68,57,45,44,38,-100,74,52,38,0.00,40.00,11,4,18,0.00
2013-5-12,79,66,52,42,39,37,59,38,26,0.00,40.00,9,4,18,0.00
2013-5-13,82,69,57,46,40,36,47,35,27,0.00,40.00,10,5,17,0.00
2013-6-12,92,78,61,54,46,36,53,32,25,0.00,40.00,13,4,19,0.00
2013-6-13,83,68,58,67,58,52,92,70,47,0.00,40.00,9,3,16,0.00
2013-6-14,90,75,60,60,50,46,70,45,24,0.00,40.00,12,4,19,0.00
2013-6-15,81,70,57,56,52,47,69,53,42,0.00,40.00,9,4,13,0.00
2013-6-16,82,70,58,60,50,43,75,50,29,0.00,40.00,17,5,32,0.00
2013-6-17,82,68,55,58,51,42,65,54,40,0.00,40.00,11,4,18,0.00
2013-6-18,85,69,55,58,55,51,93,62,34,0.00,40.00,11,4,17,0.00
2013-6-19,94,74,53,58,50,34,89,49,21,0.00,40.00,12,4,21,0.00
2013-7-15,70,67,64,64,64,63,94,87,80,0.00,40.00,2,2,4,0.00
2013-7-16,85,76,66,55,54,53,64,47,35,0.00,40.00,4,3,9,0.00
2013-7-17,65,65,65,56,56,56,71,71,71,0.00,40.00,2,2,4,0.00
2013-7-18,74,73,70,57,56,54,56,55,55,0.00,40.00,4,4,8,0.00
2013-7-20,80,75,59,61,59,53,79,58,52,0.00,40.00,2,2,6,0.00
2013-7-22,93,84,64,63,58,47,63,42,33,0.00,40.00,11,5,21,0.00
2013-7-23,89,70,65,62,47,42,49,43,39,0.00,40.00,6,3,10,0.00
2013-7-25,76,75,69,60,59,59,73,57,54,0.00,40.00,7,7,11,0.00
2013-7-27,62,62,62,62,62,62,98,98,98,0.00,40.00,7,7,14,0.00